createdAt,value
2023-01-25T00:00:31.425Z,3.40
2023-01-25T00:02:58.493Z,3.50
2023-01-25T00:05:25.472Z,3.50
2023-01-25T00:07:52.290Z,3.40
2023-01-25T00:10:19.609Z,3.40
2023-01-25T00:12:46.421Z,3.40
2023-01-25T00:15:13.184Z,3.30
2023-01-25T00:17:39.979Z,3.20
2023-01-25T00:20:07.371Z,3.20
2023-01-25T00:22:34.110Z,3.20
2023-01-25T00:25:00.773Z,3.10
2023-01-25T00:27:28.792Z,3.10
2023-01-25T00:29:55.579Z,3.10
2023-01-25T00:32:22.371Z,3.10
2023-01-25T00:34:52.503Z,3.20
2023-01-25T00:37:37.828Z,3.20
2023-01-25T00:40:05.830Z,3.20
2023-01-25T00:42:32.794Z,3.20
2023-01-25T00:44:59.577Z,3.20
2023-01-25T00:47:26.531Z,3.20
2023-01-25T00:49:53.485Z,3.20
2023-01-25T00:52:20.930Z,3.20
2023-01-25T00:54:47.704Z,3.20
2023-01-25T00:57:14.507Z,3.30
2023-01-25T00:59:44.437Z,3.20
2023-01-25T01:02:12.202Z,3.20
2023-01-25T01:04:39.141Z,3.20
2023-01-25T01:07:05.984Z,3.30
2023-01-25T01:09:32.951Z,3.40
2023-01-25T01:11:59.697Z,3.40
2023-01-25T01:14:26.416Z,3.30
2023-01-25T01:16:53.279Z,3.40
2023-01-25T01:19:19.942Z,3.40
2023-01-25T01:21:46.711Z,3.40
2023-01-25T01:24:13.563Z,3.50
2023-01-25T01:26:40.316Z,3.30
2023-01-25T01:29:07.305Z,3.30
2023-01-25T01:31:34.223Z,3.20
2023-01-25T01:34:01.953Z,3.20
2023-01-25T01:36:30.482Z,3.20
2023-01-25T01:38:58.780Z,3.30
2023-01-25T01:41:25.718Z,3.40
2023-01-25T01:43:53.181Z,3.40
2023-01-25T01:46:25.653Z,3.50
2023-01-25T01:49:03.366Z,3.50
2023-01-25T01:51:47.884Z,3.50
2023-01-25T01:54:26.594Z,3.40
2023-01-25T01:57:09.690Z,3.40
2023-01-25T02:00:05.245Z,3.30
2023-01-25T02:02:32.150Z,3.20
2023-01-25T02:05:03.314Z,3.10
2023-01-25T02:07:35.141Z,3.10
2023-01-25T02:10:04.881Z,3.10
2023-01-25T02:12:32.403Z,3.00
2023-01-25T02:14:59.230Z,3.00
2023-01-25T02:17:31.993Z,3.00
2023-01-25T02:20:13.837Z,3.00
2023-01-25T02:23:04.905Z,3.20
2023-01-25T02:25:31.829Z,3.20
2023-01-25T02:28:08.770Z,3.10
2023-01-25T02:30:35.541Z,3.10
2023-01-25T02:33:02.290Z,3.00
2023-01-25T02:35:42.978Z,3.00
2023-01-25T02:38:15.325Z,3.00
2023-01-25T02:40:59.215Z,3.20
2023-01-25T02:43:29.656Z,3.30
2023-01-25T02:46:05.534Z,3.40
2023-01-25T02:48:32.273Z,3.30
2023-01-25T02:50:59.103Z,3.20
2023-01-25T02:53:25.885Z,3.30
2023-01-25T02:55:52.680Z,3.30
2023-01-25T02:58:19.416Z,3.30
2023-01-25T03:00:46.161Z,3.20
2023-01-25T03:03:12.900Z,3.10
2023-01-25T03:05:39.616Z,3.10
2023-01-25T03:08:06.367Z,3.10
2023-01-25T03:10:33.234Z,3.10
2023-01-25T03:13:00.090Z,3.00
2023-01-25T03:15:27.150Z,3.00
2023-01-25T03:17:56.539Z,3.00
2023-01-25T03:20:23.603Z,2.90
2023-01-25T03:22:50.310Z,2.80
2023-01-25T03:25:17.076Z,2.90
2023-01-25T03:27:43.753Z,3.00
2023-01-25T03:30:11.038Z,3.00
2023-01-25T03:32:38.247Z,3.00
2023-01-25T03:35:06.328Z,3.00
2023-01-25T03:37:34.173Z,3.00
2023-01-25T03:40:01.314Z,3.00
2023-01-25T03:42:28.044Z,3.00
2023-01-25T03:44:54.775Z,2.90
2023-01-25T03:47:21.557Z,2.90
2023-01-25T03:49:48.259Z,2.90
2023-01-25T03:52:14.963Z,3.00
2023-01-25T03:54:41.793Z,2.90
2023-01-25T03:57:08.664Z,2.90
2023-01-25T03:59:35.466Z,3.00
2023-01-25T04:02:03.042Z,2.90
2023-01-25T04:04:29.921Z,3.00
2023-01-25T04:06:56.663Z,2.90
2023-01-25T04:09:23.610Z,2.90
2023-01-25T04:11:51.292Z,2.90
2023-01-25T04:14:25.514Z,2.90
2023-01-25T04:16:58.748Z,2.90
2023-01-25T04:19:25.460Z,3.00
2023-01-25T04:21:52.406Z,3.10
2023-01-25T04:24:19.235Z,3.10
2023-01-25T04:26:45.948Z,3.20
2023-01-25T04:29:13.048Z,3.20
2023-01-25T04:31:40.228Z,3.20
2023-01-25T04:34:06.919Z,3.30
2023-01-25T04:36:33.602Z,3.20
2023-01-25T04:39:00.339Z,3.10
2023-01-25T04:41:29.237Z,3.10
2023-01-25T04:43:56.062Z,3.10
2023-01-25T04:46:22.787Z,3.00
2023-01-25T04:48:49.563Z,2.90
2023-01-25T04:51:16.300Z,2.90
2023-01-25T04:53:42.991Z,3.00
2023-01-25T04:56:10.594Z,2.90
2023-01-25T04:58:37.494Z,3.00
2023-01-25T05:01:05.473Z,2.90
2023-01-25T05:03:32.258Z,3.00
2023-01-25T05:05:59.279Z,2.80
2023-01-25T05:08:26.859Z,2.90
2023-01-25T05:10:53.641Z,2.80
2023-01-25T05:13:21.097Z,2.80
2023-01-25T05:15:47.866Z,2.80
2023-01-25T05:18:14.556Z,2.80
2023-01-25T05:20:41.256Z,2.80
2023-01-25T05:23:07.945Z,2.80
2023-01-25T05:25:53.481Z,2.80
2023-01-25T05:28:20.202Z,2.70
2023-01-25T05:30:46.959Z,2.80
2023-01-25T05:33:13.738Z,2.90
2023-01-25T05:35:41.334Z,2.90
2023-01-25T05:38:08.002Z,2.90
2023-01-25T05:40:34.775Z,2.90
2023-01-25T05:43:01.635Z,2.90
2023-01-25T05:45:30.064Z,2.90
2023-01-25T05:47:58.201Z,2.80
2023-01-25T05:50:26.013Z,2.80
2023-01-25T05:52:52.721Z,2.80
2023-01-25T05:55:19.427Z,2.80
2023-01-25T05:57:46.097Z,2.80
2023-01-25T06:00:13.372Z,2.80
2023-01-25T06:02:40.357Z,2.80
2023-01-25T06:05:08.015Z,2.80
2023-01-25T06:07:39.148Z,2.70
2023-01-25T06:10:07.273Z,2.80
2023-01-25T06:12:34.036Z,2.80
2023-01-25T06:15:00.687Z,2.90
2023-01-25T06:17:27.438Z,2.90
2023-01-25T06:19:54.135Z,3.00
2023-01-25T06:22:20.919Z,2.90
2023-01-25T06:24:47.570Z,2.70
2023-01-25T06:27:14.337Z,2.70
2023-01-25T06:29:41.078Z,2.80
2023-01-25T06:32:07.821Z,2.70
2023-01-25T06:34:34.658Z,2.70
2023-01-25T06:37:01.400Z,2.80
2023-01-25T06:39:29.635Z,2.90
2023-01-25T06:41:56.707Z,3.10
2023-01-25T06:44:23.505Z,3.00
2023-01-25T06:46:50.240Z,3.00
2023-01-25T06:49:17.073Z,2.80
2023-01-25T06:51:43.811Z,2.80
2023-01-25T06:54:10.591Z,2.70
2023-01-25T06:56:37.370Z,2.60
2023-01-25T06:59:04.071Z,2.60
2023-01-25T07:01:30.983Z,2.60
2023-01-25T07:03:59.291Z,2.50
2023-01-25T07:06:27.012Z,2.60
2023-01-25T07:08:53.789Z,2.50
2023-01-25T07:11:20.584Z,2.50
2023-01-25T07:13:48.725Z,2.40
2023-01-25T07:16:19.892Z,2.50
2023-01-25T07:18:46.784Z,2.50
2023-01-25T07:21:21.150Z,2.60
2023-01-25T07:23:51.241Z,2.60
2023-01-25T07:26:25.279Z,2.70
2023-01-25T07:28:52.776Z,2.70
2023-01-25T07:31:20.866Z,2.70
2023-01-25T07:33:49.750Z,2.70
2023-01-25T07:36:16.663Z,2.70
2023-01-25T07:38:44.205Z,2.70
2023-01-25T07:41:11.019Z,2.80
2023-01-25T07:43:37.770Z,2.80
2023-01-25T07:46:13.942Z,2.80
2023-01-25T07:48:45.523Z,2.70
2023-01-25T07:51:12.502Z,2.80
2023-01-25T07:53:43.383Z,2.80
2023-01-25T07:56:12.553Z,2.90
2023-01-25T07:58:39.638Z,2.90
2023-01-25T08:01:11.285Z,2.90
2023-01-25T08:03:38.323Z,2.90
2023-01-25T08:06:05.517Z,2.90
2023-01-25T08:08:40.587Z,2.90
2023-01-25T08:11:20.173Z,2.90
2023-01-25T08:13:49.073Z,2.90
2023-01-25T08:16:21.001Z,2.80
2023-01-25T08:18:48.993Z,2.80
2023-01-25T08:21:16.279Z,2.80
2023-01-25T08:23:43.070Z,2.80
2023-01-25T08:26:11.931Z,2.80
2023-01-25T08:28:38.852Z,2.80
2023-01-25T08:31:19.115Z,2.80
2023-01-25T08:33:46.827Z,2.90
2023-01-25T08:36:14.672Z,2.90
2023-01-25T08:38:41.610Z,2.90
2023-01-25T08:41:10.457Z,2.90
2023-01-25T08:43:38.142Z,2.90
2023-01-25T08:46:05.825Z,2.90
2023-01-25T08:48:33.686Z,2.90
2023-01-25T08:51:01.385Z,2.90
2023-01-25T08:53:30.153Z,2.90
2023-01-25T08:55:57.334Z,2.90
2023-01-25T08:58:24.014Z,2.80
2023-01-25T09:00:50.768Z,2.80
2023-01-25T09:03:18.312Z,2.80
2023-01-25T09:05:45.175Z,2.80
2023-01-25T09:08:11.919Z,2.80
2023-01-25T09:10:38.634Z,2.90
2023-01-25T09:13:07.685Z,2.80
2023-01-25T09:15:35.395Z,2.90
2023-01-25T09:18:02.104Z,2.90
2023-01-25T09:20:31.713Z,2.80
2023-01-25T09:23:00.956Z,2.80
2023-01-25T09:25:27.763Z,2.80
2023-01-25T09:27:54.452Z,2.70
2023-01-25T09:30:23.471Z,2.70
2023-01-25T09:32:55.134Z,2.70
2023-01-25T09:35:22.154Z,2.80
2023-01-25T09:37:54.107Z,2.80
2023-01-25T09:40:23.623Z,2.80
2023-01-25T09:43:06.077Z,2.80
2023-01-25T09:45:37.033Z,2.80
2023-01-25T09:48:17.166Z,2.70
2023-01-25T09:51:04.197Z,2.70
2023-01-25T09:53:39.537Z,2.90
2023-01-25T09:56:23.675Z,2.90
2023-01-25T09:58:55.503Z,2.90
2023-01-25T10:01:49.903Z,2.90
2023-01-25T10:04:21.458Z,2.90
2023-01-25T10:07:00.622Z,2.80
2023-01-25T10:09:49.689Z,2.80
2023-01-25T10:12:21.340Z,2.70
2023-01-25T10:14:49.247Z,2.90
2023-01-25T10:17:38.489Z,2.90
2023-01-25T10:20:53.191Z,2.90
2023-01-25T10:23:50.720Z,3.00
2023-01-25T10:26:26.635Z,3.00
2023-01-25T10:29:11.815Z,2.90
2023-01-25T10:31:53.295Z,2.80
2023-01-25T10:34:25.974Z,2.70
2023-01-25T10:36:57.881Z,2.70
2023-01-25T10:39:24.581Z,2.60
2023-01-25T10:41:56.633Z,2.60
2023-01-25T10:44:25.877Z,2.60
2023-01-25T10:47:11.625Z,2.70
2023-01-25T10:49:58.948Z,2.70
2023-01-25T10:52:31.557Z,2.70
2023-01-25T10:55:23.131Z,2.60
2023-01-25T10:57:53.000Z,2.60
2023-01-25T11:00:39.438Z,2.60
2023-01-25T11:03:06.928Z,2.60
2023-01-25T11:05:41.758Z,2.70
2023-01-25T11:08:24.592Z,2.70
2023-01-25T11:10:52.013Z,2.80
2023-01-25T11:13:22.810Z,2.80
2023-01-25T11:15:56.875Z,2.80
2023-01-25T11:18:31.532Z,2.70
2023-01-25T11:21:28.561Z,2.70
2023-01-25T11:24:01.386Z,2.80
2023-01-25T11:26:29.006Z,2.90
2023-01-25T11:29:13.081Z,2.90
2023-01-25T11:31:46.200Z,2.90
2023-01-25T11:34:16.290Z,2.90
2023-01-25T11:36:51.800Z,3.00
2023-01-25T11:39:26.301Z,3.00
2023-01-25T11:41:56.280Z,3.00
2023-01-25T11:44:33.241Z,3.00
2023-01-25T11:47:24.474Z,3.00
2023-01-25T11:50:02.254Z,3.00
2023-01-25T11:52:40.127Z,3.00
2023-01-25T11:55:19.848Z,3.10
2023-01-25T11:58:17.023Z,2.90
2023-01-25T12:01:24.038Z,2.90
2023-01-25T12:04:06.001Z,2.70
2023-01-25T12:06:35.849Z,2.70
2023-01-25T12:09:21.021Z,2.80
2023-01-25T12:12:06.243Z,2.90
2023-01-25T12:14:57.473Z,2.90
2023-01-25T12:17:54.477Z,2.80
2023-01-25T12:21:00.919Z,2.80
2023-01-25T12:23:49.197Z,2.70
2023-01-25T12:26:29.827Z,2.70
2023-01-25T12:29:16.810Z,2.80
2023-01-25T12:31:55.729Z,2.70
2023-01-25T12:34:35.733Z,2.70
2023-01-25T12:37:13.335Z,2.80
2023-01-25T12:39:53.927Z,2.90
2023-01-25T12:42:26.370Z,2.90
2023-01-25T12:45:00.852Z,3.00
2023-01-25T12:48:01.927Z,2.80
2023-01-25T12:50:41.570Z,2.70
2023-01-25T12:53:26.815Z,2.70
2023-01-25T12:55:55.264Z,2.70
2023-01-25T12:58:45.887Z,2.70
2023-01-25T13:01:21.451Z,2.90
2023-01-25T13:04:25.477Z,2.90
2023-01-25T13:07:16.280Z,2.80
2023-01-25T13:09:58.771Z,2.80
2023-01-25T13:12:25.868Z,2.80
2023-01-25T13:14:52.687Z,2.80
2023-01-25T13:17:22.353Z,2.80
2023-01-25T13:19:50.850Z,2.90
2023-01-25T13:22:58.820Z,2.90
2023-01-25T13:25:26.380Z,3.00
2023-01-25T13:27:53.168Z,3.10
2023-01-25T13:30:34.363Z,3.00
2023-01-25T13:33:04.619Z,3.00
2023-01-25T13:35:40.174Z,2.90
2023-01-25T13:38:28.433Z,3.00
2023-01-25T13:41:12.561Z,2.90
2023-01-25T13:43:42.303Z,3.00
2023-01-25T13:46:12.932Z,3.00
2023-01-25T13:48:49.556Z,3.00
2023-01-25T13:51:18.324Z,3.00
2023-01-25T13:53:56.129Z,3.00
2023-01-25T13:56:29.499Z,2.90
2023-01-25T13:58:56.415Z,3.00
2023-01-25T14:01:23.789Z,2.90
2023-01-25T14:03:56.222Z,2.90
2023-01-25T14:06:29.569Z,2.90
2023-01-25T14:09:00.034Z,3.00
2023-01-25T14:11:32.063Z,3.10
2023-01-25T14:14:18.313Z,3.20
2023-01-25T14:16:45.735Z,3.30
2023-01-25T14:19:24.254Z,3.30
2023-01-25T14:22:26.258Z,3.40
2023-01-25T14:25:22.470Z,3.30
2023-01-25T14:27:53.065Z,3.30
2023-01-25T14:30:27.376Z,3.30
2023-01-25T14:32:56.449Z,3.30
2023-01-25T14:35:56.478Z,3.30
2023-01-25T14:38:26.343Z,3.30
2023-01-25T14:41:00.816Z,3.30
2023-01-25T14:43:28.507Z,3.20
2023-01-25T14:45:56.653Z,3.10
2023-01-25T14:48:41.315Z,2.90
2023-01-25T14:51:26.245Z,2.90
2023-01-25T14:54:02.502Z,2.90
2023-01-25T14:56:40.023Z,3.00
2023-01-25T14:59:07.409Z,3.00
2023-01-25T15:01:40.714Z,3.00
2023-01-25T15:04:12.988Z,2.90
2023-01-25T15:06:48.331Z,3.00
2023-01-25T15:09:44.914Z,3.00
2023-01-25T15:12:31.362Z,3.00
2023-01-25T15:14:58.605Z,3.00
2023-01-25T15:17:49.061Z,3.00
2023-01-25T15:20:36.943Z,3.00
2023-01-25T15:23:23.941Z,3.00
2023-01-25T15:25:59.371Z,3.10
2023-01-25T15:28:29.861Z,3.10
2023-01-25T15:30:59.916Z,3.00
2023-01-25T15:33:32.344Z,2.90
2023-01-25T15:35:59.491Z,2.80
2023-01-25T15:38:26.404Z,2.70
2023-01-25T15:40:53.400Z,2.80
2023-01-25T15:43:20.336Z,2.80
2023-01-25T15:45:51.378Z,2.70
2023-01-25T15:48:30.740Z,2.80
2023-01-25T15:50:57.734Z,2.80
2023-01-25T15:53:24.974Z,2.80
2023-01-25T15:55:57.591Z,2.70
2023-01-25T15:58:35.976Z,2.70
2023-01-25T16:01:03.412Z,2.70
2023-01-25T16:03:30.949Z,2.60
2023-01-25T16:05:58.846Z,2.80
2023-01-25T16:08:25.704Z,2.70
2023-01-25T16:10:52.471Z,2.80
2023-01-25T16:13:19.353Z,2.90
2023-01-25T16:15:49.728Z,2.90
2023-01-25T16:18:16.440Z,2.90
2023-01-25T16:20:43.719Z,3.00
2023-01-25T16:23:12.044Z,3.00
2023-01-25T16:25:42.888Z,3.10
2023-01-25T16:28:16.060Z,3.10
2023-01-25T16:30:45.054Z,3.10
2023-01-25T16:33:12.116Z,3.00
2023-01-25T16:35:38.886Z,2.90
2023-01-25T16:38:05.692Z,2.80
2023-01-25T16:40:38.726Z,2.70
2023-01-25T16:43:05.988Z,2.80
2023-01-25T16:45:32.939Z,2.80
2023-01-25T16:48:00.206Z,2.70
2023-01-25T16:50:27.233Z,2.70
2023-01-25T16:52:54.989Z,2.60
2023-01-25T16:55:21.840Z,2.50
2023-01-25T16:57:51.658Z,2.50
2023-01-25T17:00:18.619Z,2.40
2023-01-25T17:02:58.129Z,2.50
2023-01-25T17:05:29.102Z,2.60
2023-01-25T17:07:56.067Z,2.50
2023-01-25T17:10:23.226Z,2.50
2023-01-25T17:12:50.547Z,2.50
2023-01-25T17:15:20.013Z,2.50
2023-01-25T17:17:46.846Z,2.60
2023-01-25T17:20:13.531Z,2.70
2023-01-25T17:22:41.898Z,2.70
2023-01-25T17:25:08.794Z,2.80
2023-01-25T17:27:35.524Z,2.70
2023-01-25T17:30:02.349Z,2.60
2023-01-25T17:32:29.622Z,2.60
2023-01-25T17:34:59.050Z,2.60
2023-01-25T17:37:26.166Z,2.60
2023-01-25T17:39:53.654Z,2.60
2023-01-25T17:42:22.100Z,2.50
2023-01-25T17:44:48.872Z,2.40
2023-01-25T17:47:15.700Z,2.50
2023-01-25T17:49:42.765Z,2.40
2023-01-25T17:52:09.573Z,2.30
2023-01-25T17:54:36.381Z,2.40
2023-01-25T17:57:03.627Z,2.40
2023-01-25T17:59:30.344Z,2.50
2023-01-25T18:01:57.852Z,2.50
2023-01-25T18:04:25.414Z,2.50
2023-01-25T18:06:52.238Z,2.40
2023-01-25T18:09:19.484Z,2.40
2023-01-25T18:11:46.379Z,2.50
2023-01-25T18:14:17.444Z,2.60
2023-01-25T18:16:44.632Z,2.60
2023-01-25T18:19:12.366Z,2.60
2023-01-25T18:21:43.511Z,2.60
2023-01-25T18:24:33.412Z,2.50
2023-01-25T18:27:11.886Z,2.40
2023-01-25T18:30:09.937Z,2.10
2023-01-25T18:32:36.804Z,2.10
2023-01-25T18:35:04.694Z,2.00
2023-01-25T18:37:35.865Z,2.00
2023-01-25T18:40:03.321Z,2.00
2023-01-25T18:42:30.142Z,2.00
2023-01-25T18:44:57.497Z,2.20
2023-01-25T18:47:24.533Z,2.00
2023-01-25T18:49:52.933Z,1.80
2023-01-25T18:52:21.896Z,1.80
2023-01-25T18:54:49.483Z,1.90
2023-01-25T18:57:17.073Z,1.90
2023-01-25T18:59:44.346Z,1.80
2023-01-25T19:02:12.769Z,1.70
2023-01-25T19:04:39.985Z,1.70
2023-01-25T19:07:06.936Z,1.90
2023-01-25T19:09:33.832Z,1.80
2023-01-25T19:12:01.068Z,1.70
2023-01-25T19:14:28.040Z,1.60
2023-01-25T19:16:55.327Z,1.60
2023-01-25T19:19:22.700Z,1.70
2023-01-25T19:21:49.652Z,1.80
2023-01-25T19:24:19.551Z,1.90
2023-01-25T19:26:47.546Z,1.80
2023-01-25T19:29:15.213Z,2.00
2023-01-25T19:31:42.577Z,2.00
2023-01-25T19:34:09.564Z,2.00
2023-01-25T19:36:38.317Z,1.80
2023-01-25T19:39:10.005Z,1.90
2023-01-25T19:41:38.908Z,1.70
2023-01-25T19:44:07.474Z,1.80
2023-01-25T19:46:35.944Z,1.90
2023-01-25T19:49:05.511Z,1.70
2023-01-25T19:51:37.551Z,1.60
2023-01-25T19:54:07.643Z,1.60
2023-01-25T19:56:40.570Z,1.60
2023-01-25T19:59:10.864Z,1.60
2023-01-25T20:01:44.237Z,1.70
2023-01-25T20:04:13.770Z,1.60
2023-01-25T20:06:41.480Z,1.50
2023-01-25T20:09:09.162Z,1.50
2023-01-25T20:11:36.260Z,1.50
2023-01-25T20:14:05.250Z,1.60
2023-01-25T20:16:33.755Z,1.70
2023-01-25T20:19:01.985Z,1.70
2023-01-25T20:21:29.730Z,1.70
2023-01-25T20:24:00.428Z,1.70
2023-01-25T20:26:37.590Z,1.80
2023-01-25T20:29:05.508Z,1.90
2023-01-25T20:31:35.687Z,1.90
2023-01-25T20:34:06.156Z,1.90
2023-01-25T20:36:34.939Z,2.00
2023-01-25T20:39:02.296Z,1.80
2023-01-25T20:41:29.353Z,1.60
2023-01-25T20:44:02.023Z,1.60
2023-01-25T20:46:29.761Z,1.70
2023-01-25T20:48:56.722Z,1.70
2023-01-25T20:51:23.978Z,1.70
2023-01-25T20:53:51.602Z,1.80
2023-01-25T20:56:19.289Z,1.90
2023-01-25T20:58:50.524Z,1.90
2023-01-25T21:01:29.724Z,1.80
2023-01-25T21:03:58.293Z,1.80
2023-01-25T21:06:27.251Z,1.70
2023-01-25T21:08:54.144Z,1.60
2023-01-25T21:11:23.169Z,1.60
2023-01-25T21:13:49.957Z,1.60
2023-01-25T21:16:21.575Z,1.40
2023-01-25T21:18:50.766Z,1.30
2023-01-25T21:21:21.792Z,1.30
2023-01-25T21:23:50.259Z,1.20
2023-01-25T21:26:21.921Z,1.20
2023-01-25T21:28:49.553Z,1.20
2023-01-25T21:31:24.347Z,1.20
2023-01-25T21:33:51.499Z,1.30
2023-01-25T21:36:19.134Z,1.40
2023-01-25T21:38:48.133Z,1.30
2023-01-25T21:41:20.732Z,1.30
2023-01-25T21:44:09.020Z,1.30
2023-01-25T21:46:36.391Z,1.50
2023-01-25T21:49:24.790Z,1.50
2023-01-25T21:51:55.138Z,1.50
2023-01-25T21:54:24.259Z,1.50
2023-01-25T21:56:53.952Z,1.50
2023-01-25T21:59:21.462Z,1.40
2023-01-25T22:01:49.171Z,1.30
2023-01-25T22:04:17.912Z,1.30
2023-01-25T22:06:45.402Z,1.10
2023-01-25T22:09:15.370Z,1.20
2023-01-25T22:11:42.427Z,1.30
2023-01-25T22:14:09.141Z,1.40
2023-01-25T22:16:35.821Z,1.40
2023-01-25T22:19:02.722Z,1.30
2023-01-25T22:21:32.133Z,1.30
2023-01-25T22:24:04.407Z,1.20
2023-01-25T22:26:47.825Z,1.20
2023-01-25T22:29:15.290Z,1.10
2023-01-25T22:31:43.134Z,0.90
2023-01-25T22:34:10.637Z,0.90
2023-01-25T22:36:38.162Z,0.80
2023-01-25T22:39:05.196Z,0.80
2023-01-25T22:41:32.555Z,0.70
2023-01-25T22:43:59.296Z,0.60
2023-01-25T22:46:28.597Z,0.70
2023-01-25T22:48:56.040Z,0.70
2023-01-25T22:51:25.718Z,0.80
2023-01-25T22:53:53.300Z,0.90
2023-01-25T22:56:28.415Z,1.00
2023-01-25T22:58:55.400Z,0.90
2023-01-25T23:01:24.278Z,0.80
2023-01-25T23:03:52.417Z,0.80
2023-01-25T23:06:27.512Z,0.80
2023-01-25T23:08:56.181Z,0.80
2023-01-25T23:11:24.410Z,0.70
2023-01-25T23:14:11.681Z,0.70
2023-01-25T23:16:38.514Z,0.60
2023-01-25T23:19:05.672Z,0.60
2023-01-25T23:21:33.409Z,0.60
2023-01-25T23:24:01.238Z,0.60
2023-01-25T23:26:29.840Z,0.70
2023-01-25T23:28:57.905Z,0.80
2023-01-25T23:31:26.365Z,1.10
2023-01-25T23:33:55.372Z,1.00
2023-01-25T23:36:23.628Z,0.90
2023-01-25T23:38:51.085Z,0.90
2023-01-25T23:41:21.835Z,0.90
2023-01-25T23:43:49.455Z,0.90
2023-01-25T23:46:17.429Z,1.00
2023-01-25T23:48:45.374Z,1.10
2023-01-25T23:51:13.974Z,1.20
2023-01-25T23:53:42.969Z,1.40
2023-01-25T23:56:18.213Z,1.10
2023-01-25T23:58:45.557Z,1.00
